Leon, Argentina
Current Conditions -  °F | °C
As of 7:00 AM on Friday 19 Dec 2014 (Local Time) from SASJ Reporting Station
Clear Clear  
Wind Chill: 17°   Ceiling: Unl
Heat Index: 17°   Visibility: 6mi
Dew Point: 16°   Wind: 6mph
Humidity: 94%   Direction: 320°NW
Pressure: 29.88"   Gusts: NA
Location:  24.02°S, 65.42°W
Report Text: SASJ 191000Z 32005KT CAVOK 17/16 Q1012
Loading
Personal Weather Stations






























Interactive Weather Map New forecast layout! Learn more

10-Day Weather Forecast

Advertisements
Track Severe Weather on mobile